Friedrichshafen Airport

Airport
ICAO code: 
EDNY
IATA Code: 
FDH
Summary
ICAO Region: 
EUR
Territory: 
Location: 
Friedrichshafen, Baden-Württemberg
Serving: 
Lake Constance/Bodensee
Elevation: 
1358 ft
Coordinates: 
Aerial View: 
47° 40' 20.082" N, 9° 30' 43.886" E
Metar
Observation
EDNY 190820Z AUTO 00000KT 9999 // OVC013/// 00/M01 Q1029
Station
Friedrichshafen
Date/Time
2022-01-19 08:20:00
Wind direction
Wind speed
00 kts
Lowest cloud amount
overcast
Temperature
0°C
Dew point
-1°C
Humidity
92%
QNH
1029 hPa
Weather condition
n/a

Friedrichshafen Airport (also known as Bodensee Airport Friedrichshafen) is a minor international airport 3km north of Friedrichshafen, Germany, on the banks of Lake Constance.

Climatology

Temperate Marine climate/Oceanic climate (Köppen climate classification Cfb) - Moderately cool summer and comparatively warm winter.

Runways

Designator Length Width Surface Rops
6/24 2356 45 ASP Yes/Yes
Airport map: 
Aerial View: 

Accidents and Serious Incidents at or in the vicinity of EDNY

SKYbrary Partners:

Safety knowledge contributed by: